createdAt,value
2017-08-08T00:01:35.580Z,70.90
2017-08-08T00:04:03.961Z,71.40
2017-08-08T00:06:32.274Z,71.30
2017-08-08T00:08:59.824Z,71.40
2017-08-08T00:11:27.445Z,71.10
2017-08-08T00:13:54.990Z,70.70
2017-08-08T00:16:22.532Z,70.90
2017-08-08T00:18:50.096Z,71.50
2017-08-08T00:21:17.665Z,71.90
2017-08-08T00:23:45.201Z,71.70
2017-08-08T00:26:12.823Z,71.70
2017-08-08T00:28:40.365Z,71.50
2017-08-08T00:31:07.901Z,71.20
2017-08-08T00:33:35.483Z,71.80
2017-08-08T00:36:03.030Z,71.50
2017-08-08T00:38:30.573Z,71.90
2017-08-08T00:40:58.140Z,72.00
2017-08-08T00:43:25.681Z,71.30
2017-08-08T00:45:53.225Z,72.10
2017-08-08T00:48:20.834Z,71.50
2017-08-08T00:50:48.377Z,72.20
2017-08-08T00:53:15.917Z,72.40
2017-08-08T00:55:43.484Z,73.20
2017-08-08T00:58:11.036Z,72.50
2017-08-08T01:00:39.090Z,72.40
2017-08-08T01:03:06.669Z,72.50
2017-08-08T01:05:34.209Z,71.80
2017-08-08T01:08:01.774Z,72.40
2017-08-08T01:10:29.381Z,72.20
2017-08-08T01:12:56.925Z,71.90
2017-08-08T01:15:24.470Z,71.70
2017-08-08T01:17:52.084Z,72.10
2017-08-08T01:20:20.382Z,72.60
2017-08-08T01:22:47.929Z,73.10
2017-08-08T01:25:15.497Z,72.90
2017-08-08T01:27:43.045Z,72.70
2017-08-08T01:30:11.353Z,72.70
2017-08-08T01:32:38.985Z,72.60
2017-08-08T01:35:06.529Z,73.00
2017-08-08T01:37:34.073Z,73.30
2017-08-08T01:40:01.645Z,72.60
2017-08-08T01:42:29.185Z,72.80
2017-08-08T01:44:56.728Z,72.80
2017-08-08T01:47:24.305Z,72.50
2017-08-08T01:49:51.853Z,72.30
2017-08-08T01:52:19.510Z,72.30
2017-08-08T01:54:47.124Z,72.70
2017-08-08T01:57:14.669Z,73.40
2017-08-08T01:59:42.213Z,73.40
2017-08-08T02:02:10.469Z,73.90
2017-08-08T02:04:38.009Z,73.30
2017-08-08T02:07:05.549Z,73.50
2017-08-08T02:09:33.117Z,73.80
2017-08-08T02:12:00.660Z,73.60
2017-08-08T02:14:28.974Z,73.80
2017-08-08T02:16:56.580Z,73.70
2017-08-08T02:19:24.121Z,74.00
2017-08-08T02:21:51.669Z,73.70
2017-08-08T02:24:19.288Z,74.80
2017-08-08T02:26:46.834Z,74.80
2017-08-08T02:29:14.380Z,74.70
2017-08-08T02:31:41.953Z,74.10
2017-08-08T02:34:09.498Z,73.90
2017-08-08T02:36:37.041Z,74.00
2017-08-08T02:39:04.644Z,74.30
2017-08-08T02:41:32.185Z,74.10
2017-08-08T02:43:59.731Z,74.30
2017-08-08T02:46:27.300Z,74.30
2017-08-08T02:48:54.867Z,74.80
2017-08-08T02:51:22.415Z,75.50
2017-08-08T02:53:49.984Z,76.10
2017-08-08T02:56:17.549Z,76.10
2017-08-08T02:58:45.092Z,76.20
2017-08-08T03:01:13.152Z,76.50
2017-08-08T03:03:41.476Z,76.50
2017-08-08T03:06:09.020Z,76.60
2017-08-08T03:08:37.362Z,76.20
2017-08-08T03:11:04.900Z,76.10
2017-08-08T03:13:32.454Z,77.20
2017-08-08T03:16:00.045Z,77.30
2017-08-08T03:18:27.593Z,77.10
2017-08-08T03:20:55.136Z,76.50
2017-08-08T03:23:22.745Z,76.40
2017-08-08T03:25:50.290Z,76.50
2017-08-08T03:28:17.833Z,75.90
2017-08-08T03:30:45.445Z,76.10
2017-08-08T03:33:13.763Z,75.80
2017-08-08T03:35:41.312Z,75.70
2017-08-08T03:38:08.883Z,75.50
2017-08-08T03:40:36.424Z,75.40
2017-08-08T03:43:03.966Z,76.20
2017-08-08T03:45:32.345Z,76.20
2017-08-08T03:48:00.657Z,75.60
2017-08-08T03:50:28.209Z,75.60
2017-08-08T03:52:55.791Z,74.90
2017-08-08T03:55:23.339Z,74.40
2017-08-08T03:57:50.880Z,74.40
2017-08-08T04:00:18.460Z,75.10
2017-08-08T04:02:46.005Z,74.80
2017-08-08T04:05:13.552Z,74.70
2017-08-08T04:07:41.157Z,74.40
2017-08-08T04:10:08.699Z,74.30
2017-08-08T04:12:36.249Z,74.10
2017-08-08T04:15:03.818Z,74.90
2017-08-08T04:17:31.365Z,76.00
2017-08-08T04:19:58.909Z,76.00
2017-08-08T04:22:26.477Z,76.30
2017-08-08T04:24:54.025Z,75.90
2017-08-08T04:27:21.573Z,76.20
2017-08-08T04:29:50.050Z,76.80
2017-08-08T04:32:17.592Z,76.50
2017-08-08T04:34:45.133Z,76.80
2017-08-08T04:37:12.758Z,76.60
2017-08-08T04:39:40.301Z,77.70
2017-08-08T04:42:07.852Z,76.80
2017-08-08T04:44:36.192Z,77.40
2017-08-08T04:47:03.737Z,77.40
2017-08-08T04:49:31.289Z,77.60
2017-08-08T04:51:58.909Z,77.60
2017-08-08T04:54:26.454Z,78.00
2017-08-08T04:56:53.996Z,77.70
2017-08-08T04:59:21.564Z,78.80
2017-08-08T05:01:49.105Z,78.70
2017-08-08T05:04:16.657Z,79.00
2017-08-08T05:06:44.833Z,79.10
2017-08-08T05:09:12.391Z,78.60
2017-08-08T05:11:39.933Z,79.10
2017-08-08T05:14:07.540Z,78.50
2017-08-08T05:16:35.081Z,78.80
2017-08-08T05:19:02.631Z,78.90
2017-08-08T05:21:30.249Z,79.30
2017-08-08T05:23:57.844Z,79.60
2017-08-08T05:26:25.405Z,79.00
2017-08-08T05:28:52.974Z,78.20
2017-08-08T05:31:20.520Z,78.20
2017-08-08T05:33:48.060Z,78.20
2017-08-08T05:36:15.669Z,78.00
2017-08-08T05:38:43.225Z,78.10
2017-08-08T05:41:10.770Z,79.00
2017-08-08T05:43:38.468Z,78.20
2017-08-08T05:46:06.017Z,78.40
2017-08-08T05:48:33.561Z,78.30
2017-08-08T05:51:01.133Z,77.80
2017-08-08T05:53:28.685Z,77.20
2017-08-08T05:55:56.238Z,77.10
2017-08-08T05:58:23.821Z,76.90
2017-08-08T06:00:51.392Z,76.60
2017-08-08T06:03:18.938Z,76.80
2017-08-08T06:05:46.500Z,76.70
2017-08-08T06:08:14.381Z,75.90
2017-08-08T06:10:41.929Z,75.90
2017-08-08T06:13:09.867Z,75.60
2017-08-08T06:15:37.431Z,73.90
2017-08-08T06:18:04.969Z,70.50
2017-08-08T06:20:32.540Z,64.40
2017-08-08T06:23:00.080Z,59.50
2017-08-08T06:25:28.393Z,52.70
2017-08-08T06:27:55.966Z,52.60
2017-08-08T06:30:23.512Z,50.30
2017-08-08T06:32:51.066Z,49.50
2017-08-08T06:35:18.682Z,47.70
2017-08-08T06:37:46.217Z,43.40
2017-08-08T06:40:13.766Z,41.80
2017-08-08T06:42:41.345Z,40.40
2017-08-08T06:45:08.907Z,38.30
2017-08-08T06:47:36.446Z,37.40
2017-08-08T06:50:04.013Z,37.20
2017-08-08T06:52:31.547Z,35.70
2017-08-08T06:55:00.254Z,35.70
2017-08-08T06:57:27.872Z,35.10
2017-08-08T06:59:55.438Z,35.70
2017-08-08T07:02:23.015Z,36.80
2017-08-08T07:04:50.625Z,37.30
2017-08-08T07:07:18.182Z,36.60
2017-08-08T07:09:46.308Z,35.50
2017-08-08T07:12:13.899Z,34.90
2017-08-08T07:14:41.449Z,33.30
2017-08-08T07:17:09.005Z,33.00
2017-08-08T07:19:36.634Z,31.80
2017-08-08T07:22:04.280Z,32.50
2017-08-08T07:24:32.591Z,32.30
2017-08-08T07:27:00.165Z,32.20
2017-08-08T07:29:27.716Z,32.50
2017-08-08T07:31:55.274Z,32.10
2017-08-08T07:34:23.642Z,31.30
2017-08-08T07:36:51.228Z,31.30
2017-08-08T07:39:18.788Z,31.60
2017-08-08T07:41:46.466Z,31.80
2017-08-08T07:44:14.024Z,32.20
2017-08-08T07:46:41.573Z,31.40
2017-08-08T07:49:09.222Z,30.00
2017-08-08T07:51:36.785Z,30.00
2017-08-08T07:54:04.358Z,29.50
2017-08-08T07:56:31.945Z,29.50
2017-08-08T07:58:59.502Z,28.90
2017-08-08T08:01:27.067Z,29.00
2017-08-08T08:03:54.685Z,30.00
2017-08-08T08:06:22.248Z,29.60
2017-08-08T08:08:49.805Z,29.80
2017-08-08T08:11:17.689Z,29.00
2017-08-08T08:13:45.251Z,29.50
2017-08-08T08:16:12.851Z,28.40
2017-08-08T08:18:40.428Z,29.10
2017-08-08T08:21:08.056Z,28.50
2017-08-08T08:23:35.646Z,28.30
2017-08-08T08:26:03.277Z,26.90
2017-08-08T08:28:30.845Z,26.50
2017-08-08T08:30:59.174Z,27.50
2017-08-08T08:33:26.786Z,27.10
2017-08-08T08:35:54.335Z,27.70
2017-08-08T08:38:21.893Z,27.80
2017-08-08T08:40:49.485Z,27.80
2017-08-08T08:43:17.042Z,27.70
2017-08-08T08:45:44.600Z,27.70
2017-08-08T08:48:12.213Z,27.60
2017-08-08T08:50:40.034Z,26.30
2017-08-08T08:53:07.587Z,26.20
2017-08-08T08:55:36.262Z,25.60
2017-08-08T08:58:04.585Z,25.30
2017-08-08T09:00:32.144Z,25.20
2017-08-08T09:02:59.725Z,25.40
2017-08-08T09:05:29.393Z,24.70
2017-08-08T09:07:56.950Z,24.00
2017-08-08T09:10:24.577Z,24.30
2017-08-08T09:12:52.454Z,24.20
2017-08-08T09:15:20.775Z,22.50
2017-08-08T09:17:48.365Z,22.40
2017-08-08T09:20:15.945Z,21.90
2017-08-08T09:22:43.981Z,21.40
2017-08-08T09:25:11.577Z,21.00
2017-08-08T09:27:39.117Z,22.20
2017-08-08T09:30:06.672Z,22.60
2017-08-08T09:32:34.277Z,22.70
2017-08-08T09:35:02.593Z,22.40
2017-08-08T09:37:30.210Z,22.40
2017-08-08T09:39:57.804Z,22.70
2017-08-08T09:42:25.362Z,23.10
2017-08-08T09:44:52.906Z,24.00
2017-08-08T09:47:21.662Z,24.30
2017-08-08T09:49:50.110Z,23.80
2017-08-08T09:52:17.686Z,23.70
2017-08-08T09:54:45.320Z,22.80
2017-08-08T09:57:12.897Z,21.80
2017-08-08T09:59:40.454Z,23.30
2017-08-08T10:02:08.089Z,23.90
2017-08-08T10:04:35.643Z,23.80
2017-08-08T10:07:03.191Z,25.40
2017-08-08T10:09:30.778Z,26.30
2017-08-08T10:11:58.332Z,26.60
2017-08-08T10:14:26.501Z,27.70
2017-08-08T10:16:54.130Z,28.20
2017-08-08T10:19:21.677Z,28.30
2017-08-08T10:21:49.225Z,29.10
2017-08-08T10:24:16.805Z,29.40
2017-08-08T10:26:44.363Z,30.10
2017-08-08T10:29:11.923Z,31.50
2017-08-08T10:31:39.500Z,32.30
2017-08-08T10:34:07.065Z,32.30
2017-08-08T10:36:34.652Z,33.20
2017-08-08T10:39:02.301Z,33.50
2017-08-08T10:41:29.857Z,35.20
2017-08-08T10:43:57.405Z,36.00
2017-08-08T10:46:25.002Z,36.10
2017-08-08T10:48:52.554Z,36.80
2017-08-08T10:51:20.138Z,38.00
2017-08-08T10:53:47.724Z,37.90
2017-08-08T10:56:15.306Z,37.60
2017-08-08T10:58:42.890Z,37.20
2017-08-08T11:01:10.517Z,37.90
2017-08-08T11:03:38.077Z,39.50
2017-08-08T11:06:05.794Z,38.60
2017-08-08T11:08:33.418Z,37.80
2017-08-08T11:11:00.977Z,38.70
2017-08-08T11:13:28.559Z,39.40
2017-08-08T11:15:56.645Z,40.40
2017-08-08T11:18:24.210Z,40.50
2017-08-08T11:20:51.789Z,38.30
2017-08-08T11:23:19.429Z,37.70
2017-08-08T11:25:46.990Z,38.60
2017-08-08T11:28:14.535Z,38.70
2017-08-08T11:30:42.154Z,37.70
2017-08-08T11:33:09.716Z,37.10
2017-08-08T11:35:37.272Z,36.90
2017-08-08T11:38:05.766Z,36.40
2017-08-08T11:40:34.629Z,35.20
2017-08-08T11:43:02.182Z,35.50
2017-08-08T11:45:31.971Z,35.80
2017-08-08T11:47:59.517Z,37.80
2017-08-08T11:50:33.657Z,38.00
2017-08-08T11:53:04.054Z,38.30
2017-08-08T11:55:33.360Z,38.00
2017-08-08T11:58:00.979Z,37.50
2017-08-08T12:00:30.542Z,38.20
2017-08-08T12:02:58.121Z,38.40
2017-08-08T12:05:30.329Z,38.30
2017-08-08T12:07:57.901Z,37.60
2017-08-08T12:10:25.490Z,37.00
2017-08-08T12:12:56.205Z,38.00
2017-08-08T12:15:23.792Z,38.10
2017-08-08T12:17:51.800Z,36.00
2017-08-08T12:20:19.400Z,36.20
2017-08-08T12:22:46.961Z,35.20
2017-08-08T12:25:14.518Z,35.30
2017-08-08T12:27:42.145Z,34.80
2017-08-08T12:30:11.340Z,33.40
2017-08-08T12:32:38.897Z,33.40
2017-08-08T12:35:06.512Z,33.70
2017-08-08T12:37:34.061Z,32.80
2017-08-08T12:40:01.639Z,32.10
2017-08-08T12:42:29.241Z,31.40
2017-08-08T12:45:05.224Z,30.70
2017-08-08T12:47:32.846Z,32.00
2017-08-08T12:50:00.486Z,34.10
2017-08-08T12:52:28.066Z,35.60
2017-08-08T12:54:55.681Z,35.80
2017-08-08T12:57:23.241Z,35.10
2017-08-08T12:59:50.805Z,35.10
2017-08-08T13:02:18.396Z,36.40
2017-08-08T13:04:45.969Z,36.80
2017-08-08T13:07:13.537Z,35.00
2017-08-08T13:09:41.127Z,35.20
2017-08-08T13:12:08.691Z,34.70
2017-08-08T13:14:36.233Z,35.10
2017-08-08T13:17:03.842Z,39.10
2017-08-08T13:19:31.876Z,38.60
2017-08-08T13:21:59.433Z,38.70
2017-08-08T13:24:27.809Z,39.10
2017-08-08T13:26:56.126Z,39.10
2017-08-08T13:29:23.665Z,39.10
2017-08-08T13:31:51.237Z,39.30
2017-08-08T13:34:18.781Z,39.50
2017-08-08T13:36:46.319Z,39.60
2017-08-08T13:39:14.653Z,39.20
2017-08-08T13:41:42.198Z,39.10
2017-08-08T13:44:09.737Z,39.80
2017-08-08T13:46:37.346Z,38.10
2017-08-08T13:49:04.890Z,38.30
2017-08-08T13:51:32.458Z,38.40
2017-08-08T13:54:00.025Z,38.70
2017-08-08T13:56:27.574Z,39.30
2017-08-08T13:58:55.119Z,39.30
2017-08-08T14:01:22.717Z,38.50
2017-08-08T14:03:50.314Z,38.10
2017-08-08T14:06:17.921Z,38.40
2017-08-08T14:08:45.574Z,37.90
2017-08-08T14:11:13.136Z,37.80
2017-08-08T14:13:40.676Z,38.50
2017-08-08T14:16:08.729Z,38.20
2017-08-08T14:18:36.276Z,38.80
2017-08-08T14:21:04.116Z,39.00
2017-08-08T14:23:31.763Z,39.10
2017-08-08T14:25:59.306Z,38.70
2017-08-08T14:28:26.850Z,38.10
2017-08-08T14:30:54.469Z,37.80
2017-08-08T14:33:22.048Z,38.90
2017-08-08T14:35:49.590Z,39.40
2017-08-08T14:38:17.190Z,41.20
2017-08-08T14:40:44.787Z,41.40
2017-08-08T14:43:12.342Z,40.80
2017-08-08T14:45:39.905Z,41.20
2017-08-08T14:48:07.437Z,39.80
2017-08-08T14:50:35.622Z,41.80
2017-08-08T14:53:03.241Z,41.40
2017-08-08T14:55:30.794Z,42.10
2017-08-08T14:57:59.101Z,44.70
2017-08-08T15:00:26.783Z,43.90
2017-08-08T15:02:54.378Z,45.40
2017-08-08T15:05:22.706Z,48.70
2017-08-08T15:07:50.289Z,48.00
2017-08-08T15:10:17.825Z,49.30
2017-08-08T15:12:45.365Z,46.20
2017-08-08T15:15:24.219Z,46.50
2017-08-08T15:25:48.205Z,49.40
2017-08-08T15:28:16.518Z,50.20
2017-08-08T15:30:44.073Z,49.70
2017-08-08T15:33:11.681Z,50.40
2017-08-08T15:35:39.230Z,50.60
2017-08-08T15:38:06.774Z,51.10
2017-08-08T15:40:34.340Z,52.30
2017-08-08T15:43:01.883Z,53.10
2017-08-08T15:45:29.429Z,53.40
2017-08-08T15:47:57.010Z,54.00
2017-08-08T15:50:24.569Z,54.10
2017-08-08T15:52:52.110Z,54.10
2017-08-08T15:55:19.726Z,53.00
2017-08-08T15:57:47.268Z,53.30
2017-08-08T16:00:14.806Z,53.50
2017-08-08T16:02:42.388Z,53.60
2017-08-08T16:05:09.933Z,53.10
2017-08-08T16:07:37.481Z,52.50
2017-08-08T16:10:05.082Z,52.90
2017-08-08T16:12:32.612Z,52.50
2017-08-08T16:15:00.149Z,52.10
2017-08-08T16:17:28.092Z,52.10
2017-08-08T16:19:55.625Z,51.00
2017-08-08T16:22:23.165Z,50.30
2017-08-08T16:24:50.738Z,50.70
2017-08-08T16:27:18.865Z,51.00
2017-08-08T16:29:46.409Z,51.40
2017-08-08T16:32:14.792Z,51.70
2017-08-08T16:34:43.096Z,52.10
2017-08-08T16:37:10.637Z,52.00
2017-08-08T16:39:38.237Z,52.00
2017-08-08T16:42:05.769Z,53.90
2017-08-08T16:44:33.304Z,54.90
2017-08-08T16:47:01.657Z,59.10
2017-08-08T16:49:29.269Z,59.10
2017-08-08T16:51:56.813Z,61.40
2017-08-08T16:54:24.378Z,64.20
2017-08-08T16:56:51.989Z,64.20
2017-08-08T16:59:19.529Z,65.70
2017-08-08T17:01:47.129Z,66.00
2017-08-08T17:04:14.669Z,66.60
2017-08-08T17:06:42.206Z,67.40
2017-08-08T17:09:09.793Z,68.10
2017-08-08T17:11:37.585Z,69.60
2017-08-08T17:14:05.138Z,68.80
2017-08-08T17:16:32.747Z,68.50
2017-08-08T17:19:00.381Z,70.00
2017-08-08T17:21:27.979Z,71.10
2017-08-08T17:23:55.642Z,71.60
2017-08-08T17:26:23.206Z,70.80
2017-08-08T17:28:51.057Z,71.10
2017-08-08T17:31:18.628Z,71.10
2017-08-08T17:33:46.192Z,71.40
2017-08-08T17:36:13.753Z,72.00
2017-08-08T17:38:41.523Z,72.30
2017-08-08T17:41:09.068Z,72.50
2017-08-08T17:43:36.626Z,72.40
2017-08-08T17:46:04.228Z,73.40
2017-08-08T17:48:31.768Z,73.10
2017-08-08T17:51:00.188Z,73.70
2017-08-08T17:53:28.525Z,72.80
2017-08-08T17:55:56.078Z,72.80
2017-08-08T17:58:24.739Z,72.80
2017-08-08T18:00:55.829Z,72.80
2017-08-08T18:03:23.456Z,73.60
2017-08-08T18:05:52.357Z,73.30
2017-08-08T18:08:23.019Z,73.00
2017-08-08T18:11:03.275Z,73.00
2017-08-08T18:13:30.857Z,73.10
2017-08-08T18:15:58.401Z,72.70
2017-08-08T18:18:25.970Z,72.60
2017-08-08T18:20:53.684Z,73.10
2017-08-08T18:23:21.236Z,73.40
2017-08-08T18:25:48.781Z,73.40
2017-08-08T18:28:17.225Z,72.60
2017-08-08T18:30:44.952Z,72.90
2017-08-08T18:33:12.490Z,72.80
2017-08-08T18:35:40.060Z,72.40
2017-08-08T18:38:07.596Z,72.60
2017-08-08T18:40:37.012Z,71.70
2017-08-08T18:43:04.660Z,72.40
2017-08-08T18:45:32.202Z,72.50
2017-08-08T18:48:00.511Z,73.20
2017-08-08T18:50:28.117Z,73.20
2017-08-08T18:52:55.657Z,73.50
2017-08-08T18:55:23.284Z,73.90
2017-08-08T18:57:51.184Z,73.90
2017-08-08T19:00:18.883Z,73.30
2017-08-08T19:02:46.443Z,73.00
2017-08-08T19:05:14.046Z,73.20
2017-08-08T19:07:41.663Z,73.20
2017-08-08T19:10:09.224Z,73.40
2017-08-08T19:12:36.862Z,72.80
2017-08-08T19:15:04.457Z,72.00
2017-08-08T19:17:35.840Z,72.60
2017-08-08T19:20:03.488Z,71.90
2017-08-08T19:22:31.102Z,72.30
2017-08-08T19:25:01.098Z,73.20
2017-08-08T19:27:28.681Z,72.80
2017-08-08T19:29:56.242Z,72.10
2017-08-08T19:32:24.241Z,72.20
2017-08-08T19:34:51.850Z,72.20
2017-08-08T19:37:19.416Z,72.90
2017-08-08T19:39:48.466Z,74.60
2017-08-08T19:42:16.056Z,75.40
2017-08-08T19:44:43.607Z,76.40
2017-08-08T19:47:11.166Z,79.10
2017-08-08T19:49:38.961Z,81.70
2017-08-08T19:52:06.507Z,83.40
2017-08-08T19:54:34.065Z,85.50
2017-08-08T19:57:01.677Z,85.90
2017-08-08T19:59:29.988Z,86.10
2017-08-08T20:01:57.526Z,86.50
2017-08-08T20:04:25.861Z,85.10
2017-08-08T20:06:53.398Z,85.10
2017-08-08T20:09:20.937Z,85.10
2017-08-08T20:11:48.909Z,83.40
2017-08-08T20:14:16.450Z,83.60
2017-08-08T20:16:43.985Z,82.80
2017-08-08T20:19:11.554Z,83.60
2017-08-08T20:21:39.874Z,83.70
2017-08-08T20:24:07.412Z,83.50
2017-08-08T20:26:35.778Z,83.80
2017-08-08T20:29:04.093Z,84.20
2017-08-08T20:31:31.629Z,84.10
2017-08-08T20:34:00.288Z,82.40
2017-08-08T20:36:27.830Z,82.20
2017-08-08T20:38:55.374Z,82.10
2017-08-08T20:41:22.940Z,81.30
2017-08-08T20:43:50.472Z,81.20
2017-08-08T20:46:18.012Z,81.50
2017-08-08T20:48:45.599Z,82.30
2017-08-08T20:51:13.152Z,81.90
2017-08-08T20:53:40.693Z,82.30
2017-08-08T20:56:08.389Z,81.30
2017-08-08T20:58:35.934Z,82.30
2017-08-08T21:01:03.464Z,82.40
2017-08-08T21:03:31.024Z,81.50
2017-08-08T21:05:59.448Z,81.50
2017-08-08T21:08:27.007Z,81.50
2017-08-08T21:10:54.915Z,81.90
2017-08-08T21:13:23.032Z,81.40
2017-08-08T21:15:50.587Z,81.30
2017-08-08T21:18:18.157Z,81.50
2017-08-08T21:20:45.692Z,81.10
2017-08-08T21:23:13.998Z,79.80
2017-08-08T21:25:41.561Z,79.70
2017-08-08T21:28:09.097Z,80.00
2017-08-08T21:30:36.637Z,80.80
2017-08-08T21:33:04.245Z,80.60
2017-08-08T21:35:32.181Z,80.10
2017-08-08T21:37:59.727Z,80.20
2017-08-08T21:40:28.069Z,81.00
2017-08-08T21:42:55.611Z,80.90
2017-08-08T21:45:23.145Z,81.30
2017-08-08T21:47:50.713Z,80.50
2017-08-08T21:50:18.249Z,81.70
2017-08-08T21:52:46.552Z,80.40
2017-08-08T21:55:14.170Z,80.20
2017-08-08T21:57:41.709Z,80.80
2017-08-08T22:00:09.248Z,80.90
2017-08-08T22:02:36.862Z,80.40
2017-08-08T22:05:04.409Z,79.80
2017-08-08T22:07:31.944Z,80.00
2017-08-08T22:09:59.513Z,79.70
2017-08-08T22:12:27.074Z,80.30
2017-08-08T22:14:54.613Z,78.60
2017-08-08T22:17:22.221Z,79.10
2017-08-08T22:19:49.765Z,79.80
2017-08-08T22:22:17.302Z,80.00
2017-08-08T22:24:44.877Z,79.90
2017-08-08T22:27:12.727Z,79.50
2017-08-08T22:29:40.264Z,79.70
2017-08-08T22:32:07.829Z,80.30
2017-08-08T22:34:35.376Z,81.10
2017-08-08T22:37:02.961Z,81.00
2017-08-08T22:39:30.573Z,81.50
2017-08-08T22:41:58.109Z,81.70
2017-08-08T22:44:25.653Z,80.70
2017-08-08T22:46:53.220Z,80.60
2017-08-08T22:49:20.754Z,81.00
2017-08-08T22:51:48.293Z,81.20
2017-08-08T22:54:15.862Z,82.10
2017-08-08T22:56:43.405Z,82.20
2017-08-08T22:59:10.968Z,81.90
2017-08-08T23:01:38.576Z,82.70
2017-08-08T23:04:06.117Z,82.10
2017-08-08T23:06:33.657Z,81.60
2017-08-08T23:09:01.264Z,81.80
2017-08-08T23:11:28.824Z,80.10
2017-08-08T23:13:56.356Z,80.00
2017-08-08T23:16:23.933Z,80.20
2017-08-08T23:18:51.505Z,81.30
2017-08-08T23:21:19.807Z,80.50
2017-08-08T23:23:47.409Z,81.50
2017-08-08T23:26:14.945Z,79.60
2017-08-08T23:28:42.484Z,78.80
2017-08-08T23:31:10.065Z,79.60
2017-08-08T23:33:37.601Z,79.70
2017-08-08T23:36:05.909Z,79.10
2017-08-08T23:38:34.309Z,79.40
2017-08-08T23:41:01.848Z,79.70
2017-08-08T23:43:29.399Z,80.20
2017-08-08T23:45:57.004Z,79.20
2017-08-08T23:48:24.542Z,79.50
2017-08-08T23:50:52.078Z,79.30
2017-08-08T23:53:19.641Z,79.60
2017-08-08T23:55:47.184Z,79.60
2017-08-08T23:58:15.486Z,79.70
